sensor_id;sensor_type;location;lat;lon;timestamp;pressure;altitude;pressure_sealevel;temperature;humidity
29733;BME280;16643;43.158;25.302;2023-08-01T00:00:39;97573.00;;;22.20;83.90
29733;BME280;16643;43.158;25.302;2023-08-01T00:03:05;97605.72;;;22.39;83.79
29733;BME280;16643;43.158;25.302;2023-08-01T00:05:31;97560.03;;;22.17;84.30
29733;BME280;16643;43.158;25.302;2023-08-01T00:07:57;97589.91;;;22.28;84.67
29733;BME280;16643;43.158;25.302;2023-08-01T00:10:22;97571.47;;;21.96;85.75
29733;BME280;16643;43.158;25.302;2023-08-01T00:12:48;97591.97;;;22.25;86.37
29733;BME280;16643;43.158;25.302;2023-08-01T00:15:13;97588.06;;;22.19;86.97
29733;BME280;16643;43.158;25.302;2023-08-01T00:17:43;97584.13;;;22.14;87.41
29733;BME280;16643;43.158;25.302;2023-08-01T00:20:09;97592.22;;;22.12;88.10
29733;BME280;16643;43.158;25.302;2023-08-01T00:22:34;97570.16;;;21.91;88.23
29733;BME280;16643;43.158;25.302;2023-08-01T00:25:00;97600.31;;;21.79;88.45
29733;BME280;16643;43.158;25.302;2023-08-01T00:27:26;97562.88;;;21.83;88.31
29733;BME280;16643;43.158;25.302;2023-08-01T00:29:52;97563.78;;;21.72;87.79
29733;BME280;16643;43.158;25.302;2023-08-01T00:32:17;97558.19;;;21.66;87.75
29733;BME280;16643;43.158;25.302;2023-08-01T00:34:43;97570.75;;;21.73;87.41
29733;BME280;16643;43.158;25.302;2023-08-01T00:37:08;97532.94;;;21.41;87.05
29733;BME280;16643;43.158;25.302;2023-08-01T00:39:34;97544.78;;;21.47;86.33
29733;BME280;16643;43.158;25.302;2023-08-01T00:42:00;97539.63;;;21.45;85.55
29733;BME280;16643;43.158;25.302;2023-08-01T00:44:25;97537.69;;;21.47;85.98
29733;BME280;16643;43.158;25.302;2023-08-01T00:46:51;97584.81;;;21.74;85.50
29733;BME280;16643;43.158;25.302;2023-08-01T00:49:17;97507.03;;;21.24;85.15
29733;BME280;16643;43.158;25.302;2023-08-01T00:51:43;97589.00;;;21.56;85.23
29733;BME280;16643;43.158;25.302;2023-08-01T00:54:09;97559.69;;;21.48;84.49
29733;BME280;16643;43.158;25.302;2023-08-01T00:56:35;97570.47;;;21.56;85.02
29733;BME280;16643;43.158;25.302;2023-08-01T00:59:01;97545.56;;;21.37;84.50
29733;BME280;16643;43.158;25.302;2023-08-01T01:01:27;97548.81;;;21.41;83.59
29733;BME280;16643;43.158;25.302;2023-08-01T01:03:53;97538.16;;;21.31;83.46
29733;BME280;16643;43.158;25.302;2023-08-01T01:06:34;97566.66;;;21.49;83.79
29733;BME280;16643;43.158;25.302;2023-08-01T01:09:14;97513.69;;;21.18;83.81
29733;BME280;16643;43.158;25.302;2023-08-01T01:11:40;97522.78;;;21.25;83.91
29733;BME280;16643;43.158;25.302;2023-08-01T01:14:06;97520.16;;;21.14;83.65
29733;BME280;16643;43.158;25.302;2023-08-01T01:16:31;97561.34;;;21.28;83.78
29733;BME280;16643;43.158;25.302;2023-08-01T01:18:57;97551.63;;;21.28;83.02
29733;BME280;16643;43.158;25.302;2023-08-01T01:21:22;97527.75;;;21.19;82.81
29733;BME280;16643;43.158;25.302;2023-08-01T01:23:49;97464.19;;;20.77;82.31
29733;BME280;16643;43.158;25.302;2023-08-01T01:26:16;97512.06;;;20.95;82.13
29733;BME280;16643;43.158;25.302;2023-08-01T01:28:48;97490.31;;;20.91;81.45
29733;BME280;16643;43.158;25.302;2023-08-01T01:31:15;97542.13;;;21.26;81.34
29733;BME280;16643;43.158;25.302;2023-08-01T01:33:41;97539.88;;;21.21;81.33
29733;BME280;16643;43.158;25.302;2023-08-01T01:36:07;97521.94;;;21.14;80.42
29733;BME280;16643;43.158;25.302;2023-08-01T01:38:32;97538.75;;;21.24;80.40
29733;BME280;16643;43.158;25.302;2023-08-01T01:40:58;97526.03;;;21.18;80.24
29733;BME280;16643;43.158;25.302;2023-08-01T01:43:24;97531.44;;;21.16;79.37
29733;BME280;16643;43.158;25.302;2023-08-01T01:45:49;97525.56;;;21.13;78.35
29733;BME280;16643;43.158;25.302;2023-08-01T01:48:15;97499.94;;;20.92;77.83
29733;BME280;16643;43.158;25.302;2023-08-01T01:50:43;97466.69;;;20.79;78.18
29733;BME280;16643;43.158;25.302;2023-08-01T01:53:09;97516.34;;;21.07;77.82
29733;BME280;16643;43.158;25.302;2023-08-01T01:55:35;97514.41;;;21.09;77.88
29733;BME280;16643;43.158;25.302;2023-08-01T01:58:00;97488.63;;;20.90;77.37
29733;BME280;16643;43.158;25.302;2023-08-01T02:00:26;97507.66;;;20.84;77.32
29733;BME280;16643;43.158;25.302;2023-08-01T02:02:51;97505.22;;;20.92;77.88
29733;BME280;16643;43.158;25.302;2023-08-01T02:05:17;97521.03;;;21.03;78.04
29733;BME280;16643;43.158;25.302;2023-08-01T02:07:43;97517.34;;;20.95;78.05
29733;BME280;16643;43.158;25.302;2023-08-01T02:10:09;97551.31;;;21.22;78.12
29733;BME280;16643;43.158;25.302;2023-08-01T02:12:35;97533.69;;;20.89;77.76
29733;BME280;16643;43.158;25.302;2023-08-01T02:15:01;97498.31;;;20.69;77.59
29733;BME280;16643;43.158;25.302;2023-08-01T02:17:27;97487.75;;;20.69;77.42
29733;BME280;16643;43.158;25.302;2023-08-01T02:19:52;97535.69;;;21.08;77.54
29733;BME280;16643;43.158;25.302;2023-08-01T02:22:18;97525.41;;;20.93;77.39
29733;BME280;16643;43.158;25.302;2023-08-01T02:24:44;97529.59;;;20.96;77.13
29733;BME280;16643;43.158;25.302;2023-08-01T02:27:09;97536.09;;;20.92;76.76
29733;BME280;16643;43.158;25.302;2023-08-01T02:29:35;97565.34;;;21.11;76.77
29733;BME280;16643;43.158;25.302;2023-08-01T02:32:01;97560.69;;;21.03;75.94
29733;BME280;16643;43.158;25.302;2023-08-01T02:34:27;97561.28;;;21.07;75.20
29733;BME280;16643;43.158;25.302;2023-08-01T02:36:52;97564.78;;;21.08;75.19
29733;BME280;16643;43.158;25.302;2023-08-01T02:39:18;97554.34;;;20.95;74.75
29733;BME280;16643;43.158;25.302;2023-08-01T02:41:44;97576.41;;;21.05;74.47
29733;BME280;16643;43.158;25.302;2023-08-01T02:44:09;97554.50;;;20.82;74.62
29733;BME280;16643;43.158;25.302;2023-08-01T02:46:35;97569.00;;;20.99;74.59
29733;BME280;16643;43.158;25.302;2023-08-01T02:49:01;97522.59;;;20.74;75.06
29733;BME280;16643;43.158;25.302;2023-08-01T02:51:26;97563.84;;;20.97;75.39
29733;BME280;16643;43.158;25.302;2023-08-01T02:53:52;97590.38;;;20.96;74.95
29733;BME280;16643;43.158;25.302;2023-08-01T02:56:17;97551.22;;;20.90;74.86
29733;BME280;16643;43.158;25.302;2023-08-01T02:58:43;97555.81;;;20.88;74.75
29733;BME280;16643;43.158;25.302;2023-08-01T03:01:09;97582.06;;;21.00;74.63
29733;BME280;16643;43.158;25.302;2023-08-01T03:03:36;97604.19;;;20.99;74.30
29733;BME280;16643;43.158;25.302;2023-08-01T03:06:02;97581.75;;;20.94;74.31
29733;BME280;16643;43.158;25.302;2023-08-01T03:08:28;97564.09;;;20.83;74.24
29733;BME280;16643;43.158;25.302;2023-08-01T03:10:54;97549.34;;;20.70;73.75
29733;BME280;16643;43.158;25.302;2023-08-01T03:13:20;97585.84;;;20.87;74.51
29733;BME280;16643;43.158;25.302;2023-08-01T03:15:45;97501.25;;;20.44;74.09
29733;BME280;16643;43.158;25.302;2023-08-01T03:18:11;97510.84;;;20.45;73.16
29733;BME280;16643;43.158;25.302;2023-08-01T03:20:37;97579.22;;;20.92;73.30
29733;BME280;16643;43.158;25.302;2023-08-01T03:23:03;97554.63;;;20.70;73.34
29733;BME280;16643;43.158;25.302;2023-08-01T03:25:28;97541.78;;;20.76;73.54
29733;BME280;16643;43.158;25.302;2023-08-01T03:27:54;97539.50;;;20.72;73.63
29733;BME280;16643;43.158;25.302;2023-08-01T03:30:23;97555.00;;;20.76;75.25
29733;BME280;16643;43.158;25.302;2023-08-01T03:32:48;97565.44;;;20.78;75.96
29733;BME280;16643;43.158;25.302;2023-08-01T03:35:14;97566.53;;;20.75;77.65
29733;BME280;16643;43.158;25.302;2023-08-01T03:37:40;97583.06;;;20.88;78.32
29733;BME280;16643;43.158;25.302;2023-08-01T03:40:07;97574.34;;;20.77;78.48
29733;BME280;16643;43.158;25.302;2023-08-01T03:42:38;97578.66;;;20.66;79.67
29733;BME280;16643;43.158;25.302;2023-08-01T03:45:09;97544.94;;;20.48;80.37
29733;BME280;16643;43.158;25.302;2023-08-01T03:47:35;97580.59;;;20.64;75.81
29733;BME280;16643;43.158;25.302;2023-08-01T03:50:01;97555.84;;;20.54;75.05
29733;BME280;16643;43.158;25.302;2023-08-01T03:52:26;97493.94;;;20.25;73.65
29733;BME280;16643;43.158;25.302;2023-08-01T03:54:55;97560.66;;;20.60;73.82
29733;BME280;16643;43.158;25.302;2023-08-01T03:57:21;97590.56;;;20.72;73.09
29733;BME280;16643;43.158;25.302;2023-08-01T03:59:47;97559.69;;;20.61;73.49
29733;BME280;16643;43.158;25.302;2023-08-01T04:02:12;97591.84;;;20.78;73.40
29733;BME280;16643;43.158;25.302;2023-08-01T04:04:38;97554.88;;;20.66;72.88
29733;BME280;16643;43.158;25.302;2023-08-01T04:07:04;97539.41;;;20.62;72.23
29733;BME280;16643;43.158;25.302;2023-08-01T04:09:30;97591.13;;;20.98;72.83
29733;BME280;16643;43.158;25.302;2023-08-01T04:11:56;97561.78;;;20.90;72.20
29733;BME280;16643;43.158;25.302;2023-08-01T04:14:21;97592.63;;;21.12;72.64
29733;BME280;16643;43.158;25.302;2023-08-01T04:16:47;97583.47;;;21.16;71.80
29733;BME280;16643;43.158;25.302;2023-08-01T04:19:13;97577.13;;;21.18;71.64
29733;BME280;16643;43.158;25.302;2023-08-01T04:21:39;97562.31;;;21.16;72.50
29733;BME280;16643;43.158;25.302;2023-08-01T04:24:04;97584.53;;;21.35;73.15
29733;BME280;16643;43.158;25.302;2023-08-01T04:26:30;97575.13;;;21.43;73.78
29733;BME280;16643;43.158;25.302;2023-08-01T04:28:56;97599.44;;;21.57;74.80
29733;BME280;16643;43.158;25.302;2023-08-01T04:31:21;97516.09;;;21.21;73.34
29733;BME280;16643;43.158;25.302;2023-08-01T04:33:47;97579.59;;;21.63;73.10
29733;BME280;16643;43.158;25.302;2023-08-01T04:36:13;97587.00;;;21.69;71.81
29733;BME280;16643;43.158;25.302;2023-08-01T04:50:38;97599.28;;;22.63;67.60
29733;BME280;16643;43.158;25.302;2023-08-01T04:53:03;97602.97;;;22.81;66.37
29733;BME280;16643;43.158;25.302;2023-08-01T04:55:29;97572.22;;;22.69;65.75
29733;BME280;16643;43.158;25.302;2023-08-01T04:57:55;97610.16;;;23.00;63.99
29733;BME280;16643;43.158;25.302;2023-08-01T05:00:20;97598.16;;;22.96;63.93
29733;BME280;16643;43.158;25.302;2023-08-01T05:02:46;97592.72;;;23.07;63.33
29733;BME280;16643;43.158;25.302;2023-08-01T05:05:12;97608.66;;;23.16;62.93
29733;BME280;16643;43.158;25.302;2023-08-01T05:07:37;97613.31;;;23.34;62.84
29733;BME280;16643;43.158;25.302;2023-08-01T05:10:03;97614.31;;;23.62;63.60
29733;BME280;16643;43.158;25.302;2023-08-01T05:12:29;97599.78;;;23.75;62.60
29733;BME280;16643;43.158;25.302;2023-08-01T05:14:55;97613.16;;;24.03;62.26
29733;BME280;16643;43.158;25.302;2023-08-01T05:17:21;97623.47;;;24.15;61.38
29733;BME280;16643;43.158;25.302;2023-08-01T05:19:47;97597.06;;;24.14;60.32
29733;BME280;16643;43.158;25.302;2023-08-01T05:22:13;97631.16;;;24.28;56.97
29733;BME280;16643;43.158;25.302;2023-08-01T05:24:39;97610.34;;;24.23;58.00
29733;BME280;16643;43.158;25.302;2023-08-01T05:27:04;97626.97;;;24.35;58.08
29733;BME280;16643;43.158;25.302;2023-08-01T05:29:30;97615.50;;;24.35;58.38
29733;BME280;16643;43.158;25.302;2023-08-01T05:31:56;97624.09;;;24.56;58.27
29733;BME280;16643;43.158;25.302;2023-08-01T05:34:21;97643.75;;;24.82;58.51
29733;BME280;16643;43.158;25.302;2023-08-01T05:36:47;97632.09;;;24.93;57.98
29733;BME280;16643;43.158;25.302;2023-08-01T05:39:12;97603.09;;;24.90;56.71
29733;BME280;16643;43.158;25.302;2023-08-01T05:41:38;97575.44;;;24.73;56.32
29733;BME280;16643;43.158;25.302;2023-08-01T05:44:04;97630.03;;;25.32;56.82
29733;BME280;16643;43.158;25.302;2023-08-01T05:46:30;97611.69;;;25.29;56.30
29733;BME280;16643;43.158;25.302;2023-08-01T05:48:56;97629.59;;;25.37;55.28
29733;BME280;16643;43.158;25.302;2023-08-01T05:51:24;97642.97;;;25.45;51.96
29733;BME280;16643;43.158;25.302;2023-08-01T05:53:52;97640.81;;;25.76;53.29
29733;BME280;16643;43.158;25.302;2023-08-01T05:56:20;97624.38;;;25.80;52.41
29733;BME280;16643;43.158;25.302;2023-08-01T05:58:48;97631.19;;;26.00;50.78
29733;BME280;16643;43.158;25.302;2023-08-01T06:01:15;97594.59;;;25.85;51.25
29733;BME280;16643;43.158;25.302;2023-08-01T06:03:41;97594.00;;;25.91;52.31
29733;BME280;16643;43.158;25.302;2023-08-01T06:06:06;97588.34;;;25.94;52.07
29733;BME280;16643;43.158;25.302;2023-08-01T06:08:32;97533.81;;;25.80;50.72
29733;BME280;16643;43.158;25.302;2023-08-01T06:10:58;97631.25;;;26.52;51.22
29733;BME280;16643;43.158;25.302;2023-08-01T06:13:24;97605.03;;;26.39;51.27
29733;BME280;16643;43.158;25.302;2023-08-01T06:15:49;97573.34;;;26.36;48.34
29733;BME280;16643;43.158;25.302;2023-08-01T06:18:15;97584.75;;;26.55;50.15
29733;BME280;16643;43.158;25.302;2023-08-01T06:20:41;97618.03;;;26.76;50.32
29733;BME280;16643;43.158;25.302;2023-08-01T06:23:06;97615.59;;;26.91;47.61
29733;BME280;16643;43.158;25.302;2023-08-01T06:25:32;97588.22;;;26.81;48.79
29733;BME280;16643;43.158;25.302;2023-08-01T06:27:57;97599.56;;;26.83;49.49
29733;BME280;16643;43.158;25.302;2023-08-01T06:30:24;97605.19;;;27.06;48.01
29733;BME280;16643;43.158;25.302;2023-08-01T06:32:50;97584.63;;;26.98;48.31
29733;BME280;16643;43.158;25.302;2023-08-01T06:35:16;97610.38;;;27.16;48.81
29733;BME280;16643;43.158;25.302;2023-08-01T06:37:41;97617.78;;;27.38;48.44
29733;BME280;16643;43.158;25.302;2023-08-01T06:40:07;97595.94;;;27.42;47.80
29733;BME280;16643;43.158;25.302;2023-08-01T06:42:33;97562.78;;;27.03;47.78
29733;BME280;16643;43.158;25.302;2023-08-01T06:44:59;97631.34;;;27.53;47.09
29733;BME280;16643;43.158;25.302;2023-08-01T06:47:24;97601.00;;;27.62;47.42
29733;BME280;16643;43.158;25.302;2023-08-01T06:49:50;97580.94;;;27.58;46.62
29733;BME280;16643;43.158;25.302;2023-08-01T06:52:16;97606.00;;;27.81;46.36
29733;BME280;16643;43.158;25.302;2023-08-01T06:54:41;97615.88;;;27.97;46.73
29733;BME280;16643;43.158;25.302;2023-08-01T06:57:07;97618.03;;;28.09;46.19
29733;BME280;16643;43.158;25.302;2023-08-01T06:59:33;97593.97;;;28.01;46.78
29733;BME280;16643;43.158;25.302;2023-08-01T07:01:58;97592.47;;;28.07;46.82
29733;BME280;16643;43.158;25.302;2023-08-01T07:04:24;97567.03;;;28.11;46.34
29733;BME280;16643;43.158;25.302;2023-08-01T07:06:49;97598.94;;;28.37;45.47
29733;BME280;16643;43.158;25.302;2023-08-01T07:09:15;97603.59;;;28.51;46.42
29733;BME280;16643;43.158;25.302;2023-08-01T07:11:41;97606.63;;;28.48;47.04
29733;BME280;16643;43.158;25.302;2023-08-01T07:14:06;97590.06;;;28.44;48.98
29733;BME280;16643;43.158;25.302;2023-08-01T07:16:32;97600.22;;;28.65;47.80
29733;BME280;16643;43.158;25.302;2023-08-01T07:19:00;97609.38;;;28.79;47.89
29733;BME280;16643;43.158;25.302;2023-08-01T07:21:26;97608.78;;;28.44;47.27
29733;BME280;16643;43.158;25.302;2023-08-01T07:23:51;97615.41;;;28.81;49.25
29733;BME280;16643;43.158;25.302;2023-08-01T07:26:17;97598.13;;;28.36;47.89
29733;BME280;16643;43.158;25.302;2023-08-01T07:28:42;97618.50;;;27.89;46.75
29733;BME280;16643;43.158;25.302;2023-08-01T07:31:08;97626.72;;;28.44;46.11
29733;BME280;16643;43.158;25.302;2023-08-01T07:33:34;97596.75;;;28.48;46.81
29733;BME280;16643;43.158;25.302;2023-08-01T07:36:01;97620.44;;;28.76;47.51
29733;BME280;16643;43.158;25.302;2023-08-01T07:38:27;97617.91;;;28.74;47.51
29733;BME280;16643;43.158;25.302;2023-08-01T07:40:54;97616.13;;;28.59;47.49
29733;BME280;16643;43.158;25.302;2023-08-01T07:43:20;97614.78;;;28.63;47.75
29733;BME280;16643;43.158;25.302;2023-08-01T07:45:45;97583.78;;;28.76;47.54
29733;BME280;16643;43.158;25.302;2023-08-01T07:48:11;97605.88;;;29.17;46.37
29733;BME280;16643;43.158;25.302;2023-08-01T07:50:37;97600.94;;;29.29;45.95
29733;BME280;16643;43.158;25.302;2023-08-01T07:53:03;97609.38;;;29.18;45.68
29733;BME280;16643;43.158;25.302;2023-08-01T07:55:29;97575.06;;;29.21;43.56
29733;BME280;16643;43.158;25.302;2023-08-01T07:57:58;97594.41;;;29.32;43.08
29733;BME280;16643;43.158;25.302;2023-08-01T08:00:24;97586.47;;;29.46;43.92
29733;BME280;16643;43.158;25.302;2023-08-01T08:02:49;97585.44;;;29.70;44.97
29733;BME280;16643;43.158;25.302;2023-08-01T08:05:15;97602.50;;;29.77;44.02
29733;BME280;16643;43.158;25.302;2023-08-01T08:07:41;97578.97;;;29.65;45.58
29733;BME280;16643;43.158;25.302;2023-08-01T08:10:07;97584.19;;;29.58;44.23
29733;BME280;16643;43.158;25.302;2023-08-01T08:12:33;97597.69;;;29.95;45.08
29733;BME280;16643;43.158;25.302;2023-08-01T08:14:58;97585.19;;;30.03;42.13
29733;BME280;16643;43.158;25.302;2023-08-01T08:17:24;97596.06;;;30.09;41.43
29733;BME280;16643;43.158;25.302;2023-08-01T08:19:50;97602.59;;;29.84;40.26
29733;BME280;16643;43.158;25.302;2023-08-01T08:22:15;97594.41;;;29.63;42.26
29733;BME280;16643;43.158;25.302;2023-08-01T08:24:41;97590.28;;;29.75;41.51
29733;BME280;16643;43.158;25.302;2023-08-01T08:27:06;97588.66;;;29.88;42.46
29733;BME280;16643;43.158;25.302;2023-08-01T08:29:32;97601.47;;;30.24;42.61
29733;BME280;16643;43.158;25.302;2023-08-01T08:31:58;97606.91;;;30.30;41.48
29733;BME280;16643;43.158;25.302;2023-08-01T08:34:24;97573.31;;;30.20;41.95
29733;BME280;16643;43.158;25.302;2023-08-01T08:36:49;97593.59;;;30.37;40.96
29733;BME280;16643;43.158;25.302;2023-08-01T08:39:16;97588.59;;;30.34;42.13
29733;BME280;16643;43.158;25.302;2023-08-01T08:41:46;97597.47;;;30.20;41.91
29733;BME280;16643;43.158;25.302;2023-08-01T08:44:16;97577.84;;;30.19;41.57
29733;BME280;16643;43.158;25.302;2023-08-01T08:46:43;97594.50;;;30.29;40.80
29733;BME280;16643;43.158;25.302;2023-08-01T08:49:10;97572.44;;;30.57;42.00
29733;BME280;16643;43.158;25.302;2023-08-01T08:51:37;97586.97;;;30.92;40.53
29733;BME280;16643;43.158;25.302;2023-08-01T08:54:07;97560.19;;;30.84;40.52
29733;BME280;16643;43.158;25.302;2023-08-01T08:56:34;97563.88;;;30.97;40.25
29733;BME280;16643;43.158;25.302;2023-08-01T08:59:00;97576.59;;;30.89;39.92
29733;BME280;16643;43.158;25.302;2023-08-01T09:01:27;97575.16;;;30.93;41.06
29733;BME280;16643;43.158;25.302;2023-08-01T09:03:52;97562.56;;;31.08;39.79
29733;BME280;16643;43.158;25.302;2023-08-01T09:06:24;97565.81;;;31.03;39.75
29733;BME280;16643;43.158;25.302;2023-08-01T09:08:52;97520.66;;;30.92;38.92
29733;BME280;16643;43.158;25.302;2023-08-01T09:11:20;97534.97;;;31.14;39.15
29733;BME280;16643;43.158;25.302;2023-08-01T09:13:47;97565.75;;;31.54;41.48
29733;BME280;16643;43.158;25.302;2023-08-01T09:16:14;97544.22;;;31.48;41.25
29733;BME280;16643;43.158;25.302;2023-08-01T09:19:06;97567.00;;;31.16;37.19
29733;BME280;16643;43.158;25.302;2023-08-01T09:21:33;97529.19;;;30.52;41.81
29733;BME280;16643;43.158;25.302;2023-08-01T09:26:36;97553.78;;;31.14;39.88
29733;BME280;16643;43.158;25.302;2023-08-01T09:29:02;97547.56;;;31.14;39.16
29733;BME280;16643;43.158;25.302;2023-08-01T09:31:32;97534.97;;;30.99;39.02
29733;BME280;16643;43.158;25.302;2023-08-01T09:33:59;97546.22;;;30.88;39.92
29733;BME280;16643;43.158;25.302;2023-08-01T09:36:25;97532.00;;;30.94;38.72
29733;BME280;16643;43.158;25.302;2023-08-01T09:38:51;97550.06;;;31.15;38.53
29733;BME280;16643;43.158;25.302;2023-08-01T09:41:20;97553.28;;;31.25;38.34
29733;BME280;16643;43.158;25.302;2023-08-01T09:43:46;97531.41;;;30.78;39.33
29733;BME280;16643;43.158;25.302;2023-08-01T09:46:13;97543.09;;;31.21;38.29
29733;BME280;16643;43.158;25.302;2023-08-01T09:48:39;97554.63;;;31.15;38.49
29733;BME280;16643;43.158;25.302;2023-08-01T09:51:06;97519.09;;;31.40;39.12
29733;BME280;16643;43.158;25.302;2023-08-01T09:53:32;97535.56;;;31.73;37.06
29733;BME280;16643;43.158;25.302;2023-08-01T09:56:02;97509.13;;;31.77;37.18
29733;BME280;16643;43.158;25.302;2023-08-01T09:58:34;97516.69;;;31.67;36.04
29733;BME280;16643;43.158;25.302;2023-08-01T10:01:00;97528.88;;;31.91;36.48
29733;BME280;16643;43.158;25.302;2023-08-01T10:03:29;97498.50;;;31.69;37.15
29733;BME280;16643;43.158;25.302;2023-08-01T10:05:56;97520.91;;;32.04;37.14
29733;BME280;16643;43.158;25.302;2023-08-01T10:08:22;97505.50;;;31.91;37.96
29733;BME280;16643;43.158;25.302;2023-08-01T10:10:48;97502.59;;;31.65;34.90
29733;BME280;16643;43.158;25.302;2023-08-01T10:13:14;97513.09;;;31.81;35.45
29733;BME280;16643;43.158;25.302;2023-08-01T10:15:41;97509.75;;;31.79;34.72
29733;BME280;16643;43.158;25.302;2023-08-01T10:18:08;97510.16;;;32.04;35.59
29733;BME280;16643;43.158;25.302;2023-08-01T10:20:36;97499.00;;;31.79;35.50
29733;BME280;16643;43.158;25.302;2023-08-01T10:23:03;97495.81;;;31.97;35.00
29733;BME280;16643;43.158;25.302;2023-08-01T10:25:29;97498.72;;;32.23;36.57
29733;BME280;16643;43.158;25.302;2023-08-01T10:27:59;97497.59;;;32.45;36.50
29733;BME280;16643;43.158;25.302;2023-08-01T10:30:29;97497.19;;;32.49;34.40
29733;BME280;16643;43.158;25.302;2023-08-01T10:32:56;97477.19;;;32.23;34.70
29733;BME280;16643;43.158;25.302;2023-08-01T10:35:38;97476.75;;;31.92;36.34
29733;BME280;16643;43.158;25.302;2023-08-01T10:38:09;97479.44;;;32.20;36.20
29733;BME280;16643;43.158;25.302;2023-08-01T10:40:40;97479.31;;;32.06;34.73
29733;BME280;16643;43.158;25.302;2023-08-01T10:43:19;97470.78;;;32.24;37.31
29733;BME280;16643;43.158;25.302;2023-08-01T10:45:46;97467.84;;;32.67;38.17
29733;BME280;16643;43.158;25.302;2023-08-01T10:48:12;97466.28;;;32.79;33.42
29733;BME280;16643;43.158;25.302;2023-08-01T10:50:39;97439.34;;;32.86;35.89
29733;BME280;16643;43.158;25.302;2023-08-01T10:53:08;97432.75;;;32.95;35.30
29733;BME280;16643;43.158;25.302;2023-08-01T10:55:46;97460.38;;;33.30;36.53
29733;BME280;16643;43.158;25.302;2023-08-01T10:58:12;97453.75;;;33.26;34.70
29733;BME280;16643;43.158;25.302;2023-08-01T11:00:38;97454.13;;;33.16;34.44
29733;BME280;16643;43.158;25.302;2023-08-01T11:03:04;97444.34;;;32.95;34.97
29733;BME280;16643;43.158;25.302;2023-08-01T11:05:30;97439.97;;;32.88;35.80
29733;BME280;16643;43.158;25.302;2023-08-01T11:07:57;97440.91;;;32.60;35.42
29733;BME280;16643;43.158;25.302;2023-08-01T11:10:25;97437.53;;;32.52;35.88
29733;BME280;16643;43.158;25.302;2023-08-01T11:12:51;97427.19;;;32.55;34.34
29733;BME280;16643;43.158;25.302;2023-08-01T11:15:18;97435.28;;;32.55;35.79
29733;BME280;16643;43.158;25.302;2023-08-01T11:17:49;97428.91;;;32.69;34.95
29733;BME280;16643;43.158;25.302;2023-08-01T11:20:16;97406.47;;;32.49;34.94
29733;BME280;16643;43.158;25.302;2023-08-01T11:22:56;97418.81;;;32.24;35.35
29733;BME280;16643;43.158;25.302;2023-08-01T11:25:52;97414.72;;;32.41;37.47
29733;BME280;16643;43.158;25.302;2023-08-01T11:28:19;97393.63;;;32.03;36.26
29733;BME280;16643;43.158;25.302;2023-08-01T11:30:44;97396.44;;;32.30;38.15
29733;BME280;16643;43.158;25.302;2023-08-01T11:33:21;97385.16;;;32.54;37.93
29733;BME280;16643;43.158;25.302;2023-08-01T11:36:05;97399.56;;;32.81;36.33
29733;BME280;16643;43.158;25.302;2023-08-01T11:38:34;97383.78;;;32.71;36.01
29733;BME280;16643;43.158;25.302;2023-08-01T11:41:01;97369.66;;;32.69;35.62
29733;BME280;16643;43.158;25.302;2023-08-01T11:43:38;97382.59;;;32.26;36.31
29733;BME280;16643;43.158;25.302;2023-08-01T11:46:05;97395.88;;;32.34;35.68
29733;BME280;16643;43.158;25.302;2023-08-01T11:48:31;97386.97;;;32.40;36.88
29733;BME280;16643;43.158;25.302;2023-08-01T11:51:00;97385.88;;;32.28;35.90
29733;BME280;16643;43.158;25.302;2023-08-01T11:53:27;97375.78;;;32.37;37.21
29733;BME280;16643;43.158;25.302;2023-08-01T11:55:53;97384.66;;;32.31;37.62
29733;BME280;16643;43.158;25.302;2023-08-01T11:58:32;97365.06;;;32.50;36.65
29733;BME280;16643;43.158;25.302;2023-08-01T12:01:09;97382.31;;;32.75;36.23
29733;BME280;16643;43.158;25.302;2023-08-01T12:03:51;97380.69;;;32.88;35.28
29733;BME280;16643;43.158;25.302;2023-08-01T12:06:19;97362.81;;;32.67;36.42
29733;BME280;16643;43.158;25.302;2023-08-01T12:08:46;97382.25;;;32.56;36.55
29733;BME280;16643;43.158;25.302;2023-08-01T12:13:47;97380.56;;;31.38;36.82
29733;BME280;16643;43.158;25.302;2023-08-01T12:16:13;97375.19;;;31.66;39.42
29733;BME280;16643;43.158;25.302;2023-08-01T12:18:45;97357.38;;;31.99;38.43
29733;BME280;16643;43.158;25.302;2023-08-01T12:21:12;97369.63;;;32.56;37.16
29733;BME280;16643;43.158;25.302;2023-08-01T12:23:38;97349.13;;;32.49;36.99
29733;BME280;16643;43.158;25.302;2023-08-01T12:26:04;97342.50;;;32.58;36.97
29733;BME280;16643;43.158;25.302;2023-08-01T12:28:30;97360.38;;;32.78;35.95
29733;BME280;16643;43.158;25.302;2023-08-01T12:30:56;97352.44;;;32.51;37.25
29733;BME280;16643;43.158;25.302;2023-08-01T12:33:24;97339.13;;;32.42;37.25
29733;BME280;16643;43.158;25.302;2023-08-01T12:35:50;97334.81;;;32.48;36.16
29733;BME280;16643;43.158;25.302;2023-08-01T12:38:16;97333.16;;;32.54;37.22
29733;BME280;16643;43.158;25.302;2023-08-01T12:40:41;97335.31;;;32.71;37.63
29733;BME280;16643;43.158;25.302;2023-08-01T12:43:07;97332.00;;;32.89;37.54
29733;BME280;16643;43.158;25.302;2023-08-01T12:45:33;97330.34;;;32.95;36.73
29733;BME280;16643;43.158;25.302;2023-08-01T12:47:58;97326.59;;;32.76;35.12
29733;BME280;16643;43.158;25.302;2023-08-01T12:50:24;97309.22;;;32.92;37.81
29733;BME280;16643;43.158;25.302;2023-08-01T12:52:50;97329.53;;;33.27;35.69
29733;BME280;16643;43.158;25.302;2023-08-01T12:55:15;97325.78;;;33.22;34.77
29733;BME280;16643;43.158;25.302;2023-08-01T12:57:41;97301.78;;;32.13;34.81
29733;BME280;16643;43.158;25.302;2023-08-01T13:00:07;97312.84;;;32.44;37.16
29733;BME280;16643;43.158;25.302;2023-08-01T13:02:36;97300.66;;;32.55;35.93
29733;BME280;16643;43.158;25.302;2023-08-01T13:05:03;97299.25;;;32.86;35.67